Time;durP1;ratioP1;P1;durP2;ratioP2;P2;SDS_P1;SDS_P2;PMS_P1;PMS_P2;Temp;Humidity;BMP_temperature;BMP_pressure;BME280_temperature;BME280_humidity;BME280_pressure;Samples;Min_cycle;Max_cycle;Signal;HPM_P1;HPM_P2
2021/03/29 00:00:54;;;;;;;5.57;2.50;;;;;;;;;;5071747;28;20045;-79
2021/03/29 00:03:20;;;;;;;6.22;3.03;;;;;;;;;;5075127;28;20377;-82
2021/03/29 00:05:46;;;;;;;4.65;2.40;;;;;;;;;;5076221;28;20047;-80
2021/03/29 00:08:16;;;;;;;7.07;3.10;;;;;;;;;;5076588;28;20041;-82
2021/03/29 00:10:44;;;;;;;5.88;2.38;;;;;;;;;;5074429;28;20040;-80
2021/03/29 00:13:10;;;;;;;10.30;2.60;;;;;;;;;;5073820;28;20086;-80
2021/03/29 00:15:39;;;;;;;6.13;2.55;;;;;;;;;;5077655;28;20051;-80
2021/03/29 00:18:06;;;;;;;7.03;2.72;;;;;;;;;;5079663;28;20037;-81
2021/03/29 00:20:33;;;;;;;4.60;2.47;;;;;;;;;;5080172;28;20036;-80
2021/03/29 00:23:00;;;;;;;5.45;2.40;;;;;;;;;;5078294;28;20037;-79
2021/03/29 00:25:28;;;;;;;4.35;2.25;;;;;;;;;;5080862;28;20040;-79
2021/03/29 00:27:54;;;;;;;3.67;1.92;;;;;;;;;;5080083;28;20048;-80
2021/03/29 00:30:22;;;;;;;5.18;2.38;;;;;;;;;;5081243;28;20395;-80
2021/03/29 00:32:49;;;;;;;5.70;2.10;;;;;;;;;;5076334;28;20454;-80
2021/03/29 00:35:17;;;;;;;7.63;3.08;;;;;;;;;;5077202;28;20037;-80
2021/03/29 00:37:47;;;;;;;5.82;2.85;;;;;;;;;;5076974;28;20048;-79
2021/03/29 00:40:14;;;;;;;6.63;3.28;;;;;;;;;;5076555;28;20071;-80
2021/03/29 00:42:41;;;;;;;7.60;2.83;;;;;;;;;;5077967;28;20041;-80
2021/03/29 00:45:09;;;;;;;4.93;2.67;;;;;;;;;;5077377;28;20037;-80
2021/03/29 00:47:35;;;;;;;8.15;2.45;;;;;;;;;;5075212;28;20500;-81
2021/03/29 00:50:02;;;;;;;6.68;2.70;;;;;;;;;;5063598;28;20407;-81
2021/03/29 00:52:28;;;;;;;9.23;2.60;;;;;;;;;;5075836;28;20574;-79
2021/03/29 00:54:54;;;;;;;7.10;2.50;;;;;;;;;;5075359;28;20111;-79
2021/03/29 00:57:21;;;;;;;4.63;2.55;;;;;;;;;;5075969;28;20037;-81
2021/03/29 00:59:48;;;;;;;6.15;2.88;;;;;;;;;;5076229;28;20223;-79
2021/03/29 01:02:14;;;;;;;8.63;2.85;;;;;;;;;;5075122;28;20044;-81
2021/03/29 01:04:40;;;;;;;4.55;2.67;;;;;;;;;;5074478;28;20032;-81
2021/03/29 01:07:06;;;;;;;5.90;2.58;;;;;;;;;;5077446;28;20040;-79
2021/03/29 01:09:32;;;;;;;7.35;2.60;;;;;;;;;;5073745;28;20043;-80
2021/03/29 01:11:59;;;;;;;6.85;2.97;;;;;;;;;;5074419;28;20052;-79
2021/03/29 01:14:28;;;;;;;4.80;2.40;;;;;;;;;;5073731;28;20048;-82
2021/03/29 01:16:58;;;;;;;4.25;2.60;;;;;;;;;;5074126;28;20037;-81
2021/03/29 01:19:35;;;;;;;7.00;2.58;;;;;;;;;;5065850;28;20068;-82
2021/03/29 01:22:05;;;;;;;5.85;2.88;;;;;;;;;;5071775;28;20048;-80
2021/03/29 01:24:42;;;;;;;4.82;2.30;;;;;;;;;;5073639;28;20403;-81
2021/03/29 01:27:10;;;;;;;5.03;2.58;;;;;;;;;;5074004;28;20691;-80
2021/03/29 01:29:36;;;;;;;4.43;2.75;;;;;;;;;;5067876;28;20041;-79
2021/03/29 01:32:05;;;;;;;9.98;3.60;;;;;;;;;;5070507;28;20506;-79
2021/03/29 01:34:32;;;;;;;10.85;3.17;;;;;;;;;;5074264;28;20385;-79
2021/03/29 01:37:00;;;;;;;5.20;2.60;;;;;;;;;;5073311;28;20416;-79
2021/03/29 01:39:26;;;;;;;4.85;2.20;;;;;;;;;;5074512;28;20045;-79
2021/03/29 01:41:52;;;;;;;5.13;2.22;;;;;;;;;;5073356;28;20044;-79
2021/03/29 01:44:20;;;;;;;5.85;2.40;;;;;;;;;;5074924;28;20045;-81
2021/03/29 01:46:46;;;;;;;5.20;2.53;;;;;;;;;;5074327;28;20412;-80
2021/03/29 01:49:12;;;;;;;5.93;2.78;;;;;;;;;;5075474;28;20047;-80
2021/03/29 01:51:39;;;;;;;6.05;2.70;;;;;;;;;;5075085;28;20063;-80
2021/03/29 01:54:05;;;;;;;4.47;2.15;;;;;;;;;;5075458;28;20047;-82
2021/03/29 01:56:31;;;;;;;4.50;2.75;;;;;;;;;;5070799;28;20028;-80
2021/03/29 01:58:57;;;;;;;4.10;2.38;;;;;;;;;;5054274;28;20080;-80
2021/03/29 02:01:24;;;;;;;4.80;2.13;;;;;;;;;;5064022;28;20032;-79
2021/03/29 02:03:51;;;;;;;4.85;2.38;;;;;;;;;;5071874;28;20045;-81
2021/03/29 02:06:17;;;;;;;3.90;2.20;;;;;;;;;;5072759;28;20036;-82
2021/03/29 02:08:43;;;;;;;6.75;2.30;;;;;;;;;;5065885;28;20044;-80
2021/03/29 02:11:09;;;;;;;5.53;2.33;;;;;;;;;;5073595;28;20043;-81
2021/03/29 02:13:39;;;;;;;5.10;2.35;;;;;;;;;;5074649;28;20469;-80
2021/03/29 02:16:06;;;;;;;7.03;2.72;;;;;;;;;;5074165;28;20048;-82
2021/03/29 02:18:37;;;;;;;6.20;2.55;;;;;;;;;;5058319;28;20045;-78
2021/03/29 02:21:05;;;;;;;4.18;2.33;;;;;;;;;;5062460;28;20422;-79
2021/03/29 02:23:32;;;;;;;4.13;2.42;;;;;;;;;;5073319;28;20041;-80
2021/03/29 02:26:00;;;;;;;5.32;2.80;;;;;;;;;;5074697;28;20079;-81
2021/03/29 02:28:26;;;;;;;7.60;2.78;;;;;;;;;;5073983;28;20047;-79
2021/03/29 02:30:52;;;;;;;4.45;2.22;;;;;;;;;;5074045;28;20045;-79
2021/03/29 02:33:19;;;;;;;5.75;2.72;;;;;;;;;;5074058;28;20101;-81
2021/03/29 02:35:46;;;;;;;5.88;2.70;;;;;;;;;;5073829;28;20037;-80
2021/03/29 02:38:14;;;;;;;5.68;2.78;;;;;;;;;;5073764;28;20051;-81
2021/03/29 02:40:41;;;;;;;5.97;2.85;;;;;;;;;;5073403;28;20028;-80
2021/03/29 02:43:08;;;;;;;6.43;2.70;;;;;;;;;;5073659;28;20041;-81
2021/03/29 02:45:36;;;;;;;5.45;2.55;;;;;;;;;;5073435;28;20117;-80
2021/03/29 02:48:06;;;;;;;8.02;2.58;;;;;;;;;;5062653;28;20041;-80
2021/03/29 02:50:33;;;;;;;8.05;3.15;;;;;;;;;;5064913;28;20181;-80
2021/03/29 02:53:04;;;;;;;5.40;2.47;;;;;;;;;;5077397;28;20048;-79
2021/03/29 02:55:32;;;;;;;4.82;2.42;;;;;;;;;;5077657;28;20400;-81
2021/03/29 02:58:00;;;;;;;5.40;2.83;;;;;;;;;;5068084;28;20265;-79
2021/03/29 03:00:26;;;;;;;5.20;2.67;;;;;;;;;;5060629;28;20239;-79
2021/03/29 03:02:54;;;;;;;6.35;2.53;;;;;;;;;;5077532;28;20444;-79
2021/03/29 03:05:24;;;;;;;4.50;2.35;;;;;;;;;;5077010;28;20052;-80
2021/03/29 03:07:51;;;;;;;4.55;2.53;;;;;;;;;;5076642;28;20363;-82
2021/03/29 03:10:18;;;;;;;5.35;2.95;;;;;;;;;;5077765;28;20041;-80
2021/03/29 03:12:45;;;;;;;6.00;2.85;;;;;;;;;;5086169;28;20070;-80
2021/03/29 03:15:16;;;;;;;7.07;2.97;;;;;;;;;;5078009;28;20533;-79
2021/03/29 03:17:42;;;;;;;5.63;3.05;;;;;;;;;;5078037;28;20391;-80
2021/03/29 03:20:10;;;;;;;4.60;2.28;;;;;;;;;;5078065;28;20059;-82
2021/03/29 03:22:36;;;;;;;6.18;2.40;;;;;;;;;;5079054;28;20443;-81
2021/03/29 03:25:14;;;;;;;5.13;2.90;;;;;;;;;;5080750;28;20036;-83
2021/03/29 03:27:44;;;;;;;5.00;2.72;;;;;;;;;;5077516;28;20052;-80
2021/03/29 03:30:16;;;;;;;6.63;2.83;;;;;;;;;;5076029;28;20040;-79
2021/03/29 03:32:42;;;;;;;6.60;2.75;;;;;;;;;;5077021;28;20044;-80
2021/03/29 03:35:10;;;;;;;5.82;3.28;;;;;;;;;;5077957;28;20082;-80
2021/03/29 03:37:36;;;;;;;6.40;2.90;;;;;;;;;;5070937;28;20512;-79
2021/03/29 03:40:03;;;;;;;4.95;3.10;;;;;;;;;;5057593;28;20067;-80
2021/03/29 03:42:29;;;;;;;6.13;3.20;;;;;;;;;;5076282;28;20055;-79
2021/03/29 03:44:56;;;;;;;6.15;3.78;;;;;;;;;;5076825;28;20094;-80
2021/03/29 03:47:23;;;;;;;6.03;2.90;;;;;;;;;;5077481;28;20048;-82
2021/03/29 03:49:49;;;;;;;6.35;2.80;;;;;;;;;;5077297;28;20064;-82
2021/03/29 03:52:15;;;;;;;5.82;3.35;;;;;;;;;;5077167;28;20131;-81
2021/03/29 03:54:41;;;;;;;6.65;2.90;;;;;;;;;;5077444;28;20095;-80
2021/03/29 03:57:07;;;;;;;7.15;2.95;;;;;;;;;;5075801;28;20404;-79
2021/03/29 03:59:34;;;;;;;4.60;2.60;;;;;;;;;;5068750;28;20032;-81
2021/03/29 04:02:04;;;;;;;5.93;3.10;;;;;;;;;;5075207;28;20044;-80
2021/03/29 04:04:30;;;;;;;6.28;2.72;;;;;;;;;;5074911;28;20057;-79
2021/03/29 04:06:57;;;;;;;7.60;2.55;;;;;;;;;;5074722;28;20048;-78
2021/03/29 04:09:31;;;;;;;4.22;2.40;;;;;;;;;;5074310;28;20515;-80
2021/03/29 04:11:57;;;;;;;6.70;2.70;;;;;;;;;;5067542;28;20044;-81
2021/03/29 04:14:22;;;;;;;5.10;2.70;;;;;;;;;;5074563;28;20512;-80
2021/03/29 04:16:48;;;;;;;8.10;2.78;;;;;;;;;;5075801;28;20048;-81
2021/03/29 04:19:15;;;;;;;5.80;2.58;;;;;;;;;;5060073;28;20048;-80
2021/03/29 04:21:41;;;;;;;4.78;2.38;;;;;;;;;;5073276;28;20036;-80
2021/03/29 04:24:08;;;;;;;6.85;2.78;;;;;;;;;;5081236;28;20515;-80
2021/03/29 04:26:34;;;;;;;5.63;3.20;;;;;;;;;;5081084;28;20050;-80
2021/03/29 04:29:00;;;;;;;4.55;2.70;;;;;;;;;;5080787;28;20043;-79
2021/03/29 04:31:26;;;;;;;5.82;2.72;;;;;;;;;;5076714;28;20040;-79
2021/03/29 04:33:52;;;;;;;4.22;2.67;;;;;;;;;;5077165;28;20048;-80
2021/03/29 04:36:19;;;;;;;5.00;2.20;;;;;;;;;;5066374;28;20048;-80
2021/03/29 04:38:45;;;;;;;6.82;3.05;;;;;;;;;;5056473;28;20443;-80
2021/03/29 04:41:11;;;;;;;5.85;2.88;;;;;;;;;;5066208;28;20036;-80
2021/03/29 04:43:37;;;;;;;5.00;2.47;;;;;;;;;;5076408;28;20490;-80
2021/03/29 04:46:03;;;;;;;3.95;2.20;;;;;;;;;;5067297;28;20440;-80
2021/03/29 04:48:29;;;;;;;8.25;2.55;;;;;;;;;;5056110;28;20056;-79
2021/03/29 04:50:54;;;;;;;4.70;2.50;;;;;;;;;;5062683;28;20052;-81
2021/03/29 04:53:21;;;;;;;6.68;2.85;;;;;;;;;;5076899;28;20082;-80
2021/03/29 04:55:47;;;;;;;6.05;2.75;;;;;;;;;;5075871;28;20044;-81
2021/03/29 04:58:13;;;;;;;7.22;2.92;;;;;;;;;;5076560;28;20098;-79
2021/03/29 05:00:39;;;;;;;6.30;2.83;;;;;;;;;;5075482;28;20098;-78
2021/03/29 05:03:06;;;;;;;5.63;2.60;;;;;;;;;;5076356;28;20076;-80
2021/03/29 05:05:32;;;;;;;5.57;3.15;;;;;;;;;;5075790;28;20048;-81
2021/03/29 05:07:58;;;;;;;4.75;3.53;;;;;;;;;;5076421;28;20044;-80
2021/03/29 05:10:24;;;;;;;8.32;2.70;;;;;;;;;;5073819;28;20109;-79
2021/03/29 05:12:50;;;;;;;4.68;2.33;;;;;;;;;;5074475;28;20090;-81
2021/03/29 05:15:17;;;;;;;6.90;2.60;;;;;;;;;;5072947;28;20503;-81
2021/03/29 05:17:43;;;;;;;6.30;2.80;;;;;;;;;;5075716;28;20044;-80
2021/03/29 05:20:10;;;;;;;7.10;2.60;;;;;;;;;;5076323;28;20102;-81
2021/03/29 05:22:36;;;;;;;4.93;2.75;;;;;;;;;;5074048;28;20518;-80
2021/03/29 05:25:03;;;;;;;5.50;3.55;;;;;;;;;;5074088;28;20472;-80
2021/03/29 05:27:30;;;;;;;6.65;2.40;;;;;;;;;;5074613;28;20044;-81
2021/03/29 05:29:56;;;;;;;5.93;2.65;;;;;;;;;;5075579;28;20040;-81
2021/03/29 05:32:23;;;;;;;5.60;2.65;;;;;;;;;;5075053;28;20083;-80
2021/03/29 05:34:50;;;;;;;6.20;2.90;;;;;;;;;;5074226;28;20048;-80
2021/03/29 05:37:17;;;;;;;5.28;2.50;;;;;;;;;;5074510;28;20472;-79
2021/03/29 05:39:45;;;;;;;3.30;2.45;;;;;;;;;;5074541;28;20045;-80
2021/03/29 05:42:11;;;;;;;5.65;2.63;;;;;;;;;;5074367;28;20040;-80
2021/03/29 05:44:38;;;;;;;3.75;2.60;;;;;;;;;;5074397;28;20404;-80
2021/03/29 05:47:05;;;;;;;6.75;3.05;;;;;;;;;;5074665;28;20086;-80
2021/03/29 05:49:31;;;;;;;4.63;2.45;;;;;;;;;;5074507;28;20048;-80
2021/03/29 05:51:58;;;;;;;11.15;3.60;;;;;;;;;;5074056;28;20051;-79
2021/03/29 05:54:24;;;;;;;4.57;2.80;;;;;;;;;;5073865;28;20052;-80
2021/03/29 05:56:50;;;;;;;8.27;2.80;;;;;;;;;;5074831;28;20052;-79
2021/03/29 05:59:18;;;;;;;7.90;2.55;;;;;;;;;;5074229;28;20476;-80
2021/03/29 06:01:48;;;;;;;6.78;2.70;;;;;;;;;;5073830;28;20044;-81
2021/03/29 06:04:16;;;;;;;7.20;2.65;;;;;;;;;;5073731;28;20443;-81
2021/03/29 06:06:42;;;;;;;20.73;3.85;;;;;;;;;;5074086;28;20048;-81
2021/03/29 06:09:09;;;;;;;7.07;2.60;;;;;;;;;;5073479;28;20370;-81
2021/03/29 06:11:38;;;;;;;4.22;2.55;;;;;;;;;;5072369;28;20503;-80
2021/03/29 06:14:12;;;;;;;10.63;3.42;;;;;;;;;;5072908;28;20032;-82
2021/03/29 06:16:57;;;;;;;5.30;3.67;;;;;;;;;;5066757;28;20036;-83
2021/03/29 06:19:41;;;;;;;4.47;2.30;;;;;;;;;;5074819;28;20040;-81
2021/03/29 06:22:09;;;;;;;5.70;2.78;;;;;;;;;;5068803;28;20044;-80
2021/03/29 06:24:56;;;;;;;5.60;3.17;;;;;;;;;;5074212;28;20063;-81
2021/03/29 06:27:24;;;;;;;6.53;2.80;;;;;;;;;;5074165;28;20044;-81
2021/03/29 06:29:50;;;;;;;7.32;3.70;;;;;;;;;;5074283;28;20045;-81
2021/03/29 06:32:18;;;;;;;6.50;2.85;;;;;;;;;;5074438;28;20051;-81
2021/03/29 06:34:44;;;;;;;6.95;3.08;;;;;;;;;;5074322;28;20385;-82
2021/03/29 06:37:10;;;;;;;6.65;3.42;;;;;;;;;;5074880;28;20062;-81
2021/03/29 06:39:37;;;;;;;11.40;5.00;;;;;;;;;;5074680;28;20127;-82
2021/03/29 06:42:06;;;;;;;7.32;3.92;;;;;;;;;;5073381;28;20086;-79
2021/03/29 06:44:33;;;;;;;6.00;3.80;;;;;;;;;;5074579;28;20491;-80
2021/03/29 06:47:07;;;;;;;6.32;3.58;;;;;;;;;;5073707;28;20074;-79
2021/03/29 06:49:45;;;;;;;6.35;3.75;;;;;;;;;;5066773;28;20451;-80
2021/03/29 06:52:27;;;;;;;9.70;4.53;;;;;;;;;;5075106;28;20044;-81
2021/03/29 06:54:54;;;;;;;7.35;4.03;;;;;;;;;;5074181;28;20048;-81
2021/03/29 06:57:27;;;;;;;5.38;3.13;;;;;;;;;;5074598;28;20373;-81
2021/03/29 06:59:54;;;;;;;6.13;2.88;;;;;;;;;;5060778;28;20052;-81
2021/03/29 07:02:35;;;;;;;4.55;2.22;;;;;;;;;;5074433;28;20041;-79
2021/03/29 07:05:02;;;;;;;7.38;2.45;;;;;;;;;;5075895;28;20063;-81
2021/03/29 07:07:29;;;;;;;3.83;2.40;;;;;;;;;;5075998;28;20132;-81
2021/03/29 07:09:56;;;;;;;7.43;2.50;;;;;;;;;;5062194;28;20044;-81
2021/03/29 07:12:23;;;;;;;7.35;3.25;;;;;;;;;;5071162;28;20068;-80
2021/03/29 07:14:51;;;;;;;6.40;3.60;;;;;;;;;;5074356;28;20044;-81
2021/03/29 07:17:19;;;;;;;5.90;3.83;;;;;;;;;;5074159;28;20044;-82
2021/03/29 07:19:45;;;;;;;5.95;3.60;;;;;;;;;;5062551;28;20041;-82
2021/03/29 07:22:14;;;;;;;9.15;4.07;;;;;;;;;;5071225;28;20059;-81
2021/03/29 07:24:40;;;;;;;7.25;3.47;;;;;;;;;;5075005;28;20123;-80
2021/03/29 07:27:06;;;;;;;6.80;3.58;;;;;;;;;;5076307;28;20427;-80
2021/03/29 07:29:35;;;;;;;6.03;2.65;;;;;;;;;;5074884;28;20041;-80
2021/03/29 07:32:03;;;;;;;8.25;3.20;;;;;;;;;;5074504;28;20052;-80
2021/03/29 07:34:48;;;;;;;7.57;2.85;;;;;;;;;;5075207;28;20056;-84
2021/03/29 07:37:34;;;;;;;14.15;4.47;;;;;;;;;;5076473;28;20041;-81
2021/03/29 07:40:02;;;;;;;8.23;4.30;;;;;;;;;;5080223;28;20044;-82
2021/03/29 07:42:39;;;;;;;14.82;4.68;;;;;;;;;;5081886;28;20044;-81
2021/03/29 07:45:11;;;;;;;10.05;3.95;;;;;;;;;;5080104;28;20047;-81
2021/03/29 07:47:42;;;;;;;8.73;3.85;;;;;;;;;;5080578;28;20051;-81
2021/03/29 07:50:10;;;;;;;10.90;4.65;;;;;;;;;;5078074;28;20051;-80
2021/03/29 07:52:39;;;;;;;6.60;4.40;;;;;;;;;;5080367;28;20048;-82
2021/03/29 07:55:17;;;;;;;8.25;4.70;;;;;;;;;;5078426;28;20523;-81
2021/03/29 07:58:03;;;;;;;7.32;4.05;;;;;;;;;;5078018;28;20491;-81
2021/03/29 08:01:01;;;;;;;9.05;4.25;;;;;;;;;;5076473;28;20062;-81
2021/03/29 08:03:57;;;;;;;7.20;4.00;;;;;;;;;;5058524;28;20051;-81
2021/03/29 08:06:39;;;;;;;7.03;4.00;;;;;;;;;;5062010;28;20059;-80
2021/03/29 08:09:07;;;;;;;8.80;4.00;;;;;;;;;;5078081;28;20046;-82
2021/03/29 08:12:02;;;;;;;5.20;3.58;;;;;;;;;;5077202;28;20046;-82
2021/03/29 08:14:40;;;;;;;6.93;3.20;;;;;;;;;;5076640;28;20076;-80
2021/03/29 08:17:34;;;;;;;6.57;3.22;;;;;;;;;;5083501;28;20045;-84
2021/03/29 08:20:12;;;;;;;6.45;3.33;;;;;;;;;;5066186;28;20520;-82
2021/03/29 08:22:38;;;;;;;5.22;3.10;;;;;;;;;;5086381;28;20483;-83
2021/03/29 08:25:06;;;;;;;4.80;2.72;;;;;;;;;;5075605;28;20040;-82
2021/03/29 08:27:32;;;;;;;5.35;2.53;;;;;;;;;;5076409;28;20040;-82
2021/03/29 08:30:12;;;;;;;7.75;2.85;;;;;;;;;;5077540;28;20036;-83
2021/03/29 08:32:40;;;;;;;5.93;2.70;;;;;;;;;;5073182;28;20050;-83
2021/03/29 08:35:08;;;;;;;5.55;2.65;;;;;;;;;;5073930;28;20102;-81
2021/03/29 08:37:38;;;;;;;7.25;2.67;;;;;;;;;;5071705;28;20048;-82
2021/03/29 08:40:11;;;;;;;5.68;2.78;;;;;;;;;;5079222;28;20140;-82
2021/03/29 08:42:38;;;;;;;5.93;2.35;;;;;;;;;;5076008;28;20465;-81
2021/03/29 08:45:07;;;;;;;4.80;2.70;;;;;;;;;;5076722;28;20036;-81
2021/03/29 08:47:44;;;;;;;4.95;3.00;;;;;;;;;;5164984;22;20063;-86
2021/03/29 08:50:13;;;;;;;6.28;2.17;;;;;;;;;;5078649;28;20055;-86
2021/03/29 08:52:43;;;;;;;4.18;2.25;;;;;;;;;;5063350;28;20048;-85
2021/03/29 08:55:12;;;;;;;4.25;2.35;;;;;;;;;;5056462;28;20036;-86
2021/03/29 08:57:38;;;;;;;5.35;2.90;;;;;;;;;;5080866;28;20041;-86
2021/03/29 09:00:10;;;;;;;5.13;2.67;;;;;;;;;;5085717;28;20041;-87
2021/03/29 09:02:36;;;;;;;8.93;2.80;;;;;;;;;;5049380;28;20045;-86
2021/03/29 09:05:07;;;;;;;4.22;2.40;;;;;;;;;;5075944;28;20424;-86
2021/03/29 09:07:37;;;;;;;4.47;2.60;;;;;;;;;;5077634;28;20083;-90
2021/03/29 09:10:31;;;;;;;5.60;2.45;;;;;;;;;;5078873;28;20052;-86
2021/03/29 09:12:59;;;;;;;4.90;2.80;;;;;;;;;;5282022;22;20120;-83
2021/03/29 09:15:27;;;;;;;4.30;2.70;;;;;;;;;;5072674;28;20049;-84
2021/03/29 09:17:55;;;;;;;4.10;2.70;;;;;;;;;;5071949;28;20063;-82
2021/03/29 09:20:22;;;;;;;7.03;2.58;;;;;;;;;;5310531;22;20048;-88
2021/03/29 09:22:49;;;;;;;4.32;2.20;;;;;;;;;;5085415;28;20044;-86
2021/03/29 09:25:24;;;;;;;5.60;2.30;;;;;;;;;;5084188;28;20101;-86
2021/03/29 09:28:15;;;;;;;5.72;2.70;;;;;;;;;;5095696;28;20500;-86
2021/03/29 09:30:42;;;;;;;4.85;2.25;;;;;;;;;;5085331;28;20051;-85
2021/03/29 09:33:09;;;;;;;7.32;2.92;;;;;;;;;;5070512;28;20055;-86
2021/03/29 09:35:42;;;;;;;6.07;2.35;;;;;;;;;;5078859;28;20557;-88
2021/03/29 09:38:11;;;;;;;7.07;2.60;;;;;;;;;;5080456;28;20051;-87
2021/03/29 09:40:54;;;;;;;4.97;2.50;;;;;;;;;;5098146;28;20048;-86
2021/03/29 09:43:21;;;;;;;4.72;2.85;;;;;;;;;;5073876;28;20061;-86
2021/03/29 09:45:52;;;;;;;6.15;2.50;;;;;;;;;;5098761;28;20400;-87
2021/03/29 09:48:22;;;;;;;3.95;2.00;;;;;;;;;;5094148;28;20117;-87
2021/03/29 09:50:50;;;;;;;4.68;2.00;;;;;;;;;;5092262;28;20045;-87
2021/03/29 09:53:49;;;;;;;;;;;;;;;;;;;;;
2021/03/29 09:56:41;;;;;;;;;;;;;;;;;;;;;
2021/03/29 09:59:38;;;;;;;;;;;;;;;;;;;;;
2021/03/29 10:02:14;;;;;;;;;;;;;;;;;;5093180;28;20119;-86
2021/03/29 10:04:47;;;;;;;6.00;2.58;;;;;;;;;;5090219;28;19920;-88
2021/03/29 10:07:15;;;;;;;6.18;2.30;;;;;;;;;;5082112;28;20095;-88
2021/03/29 10:09:48;;;;;;;5.80;2.00;;;;;;;;;;5091962;28;20048;-86
2021/03/29 10:12:36;;;;;;;3.70;1.75;;;;;;;;;;5091100;28;20047;-90
2021/03/29 10:15:13;;;;;;;5.70;2.17;;;;;;;;;;5080339;28;20039;-88
2021/03/29 10:17:43;;;;;;;6.30;2.40;;;;;;;;;;5092605;28;20044;-89
2021/03/29 10:24:16;;;;;;;3.60;1.50;;;;;;;;;;5088361;28;20102;-89
2021/03/29 10:34:03;;;;;;;4.30;1.40;;;;;;;;;;5106372;28;20051;-88
2021/03/29 10:36:33;;;;;;;3.53;1.70;;;;;;;;;;5091008;28;20043;-87
2021/03/29 10:39:11;;;;;;;;;;;;;;;;;;;;;
2021/03/29 10:45:19;;;;;;;6.55;2.03;;;;;;;;;;5019612;28;20045;-88
2021/03/29 10:47:49;;;;;;;3.45;1.65;;;;;;;;;;5097815;28;20044;-88
2021/03/29 10:50:18;;;;;;;5.00;2.10;;;;;;;;;;5100866;28;20056;-87
2021/03/29 10:56:15;;;;;;;4.75;2.22;;;;;;;;;;5004522;28;20047;-88
2021/03/29 11:12:24;;;;;;;6.15;1.63;;;;;;;;;;4923875;29;20083;-88
2021/03/29 11:14:50;;;;;;;8.90;1.90;;;;;;;;;;4995905;28;20055;-88
2021/03/29 11:17:18;;;;;;;4.50;1.35;;;;;;;;;;4995375;28;20042;-89
2021/03/29 11:23:11;;;;;;;3.55;1.48;;;;;;;;;;5027011;28;20061;-87
2021/03/29 11:29:00;;;;;;;5.60;1.60;;;;;;;;;;5023969;28;20428;-88
2021/03/29 11:32:03;;;;;;;7.70;2.15;;;;;;;;;;5068835;28;20134;-90
2021/03/29 11:38:29;;;;;;;5.47;1.63;;;;;;;;;;5069876;28;20137;-89
2021/03/29 11:41:02;;;;;;;8.20;2.88;;;;;;;;;;5070303;28;20049;-88
2021/03/29 11:43:54;;;;;;;5.43;1.80;;;;;;;;;;5070227;28;20048;-88
2021/03/29 11:49:56;;;;;;;2.97;1.40;;;;;;;;;;5056311;28;20052;-89
2021/03/29 11:53:03;;;;;;;;;;;;;;;;;;;;;
2021/03/29 11:55:54;;;;;;;;;;;;;;;;;;;;;
2021/03/29 12:01:41;;;;;;;4.60;1.98;;;;;;;;;;5078113;28;20052;-87
2021/03/29 12:04:13;;;;;;;4.00;1.60;;;;;;;;;;5083528;28;20052;-88
2021/03/29 12:06:45;;;;;;;4.03;1.55;;;;;;;;;;5076251;28;20056;-88
2021/03/29 12:12:37;;;;;;;2.80;1.25;;;;;;;;;;5100516;28;20568;-86
2021/03/29 12:15:05;;;;;;;6.20;2.17;;;;;;;;;;5084951;28;20052;-88
2021/03/29 12:17:32;;;;;;;3.03;1.35;;;;;;;;;;5092532;28;20070;-88
2021/03/29 12:19:58;;;;;;;3.60;1.50;;;;;;;;;;5079877;28;20077;-89
2021/03/29 12:22:27;;;;;;;2.78;1.65;;;;;;;;;;5085940;28;20467;-88
2021/03/29 12:24:56;;;;;;;3.08;1.40;;;;;;;;;;5093162;28;20111;-89
2021/03/29 12:27:23;;;;;;;5.75;1.45;;;;;;;;;;5102083;28;20055;-87
2021/03/29 12:29:54;;;;;;;6.35;1.60;;;;;;;;;;5077483;28;20052;-87
2021/03/29 12:32:21;;;;;;;3.45;1.48;;;;;;;;;;5097356;28;20086;-88
2021/03/29 12:34:51;;;;;;;4.55;1.65;;;;;;;;;;5073696;28;20139;-88
2021/03/29 12:37:18;;;;;;;5.10;1.80;;;;;;;;;;5080852;28;20044;-86
2021/03/29 12:39:52;;;;;;;3.72;1.70;;;;;;;;;;5111142;28;20048;-87
2021/03/29 12:42:28;;;;;;;6.93;1.50;;;;;;;;;;5065470;28;20055;-89
2021/03/29 12:44:55;;;;;;;5.45;1.98;;;;;;;;;;5071449;28;20048;-88
2021/03/29 12:47:24;;;;;;;13.30;2.30;;;;;;;;;;5082474;28;20408;-90
2021/03/29 12:49:51;;;;;;;4.68;1.70;;;;;;;;;;5063135;28;20044;-89
2021/03/29 12:52:18;;;;;;;6.57;1.75;;;;;;;;;;5077786;28;20040;-88
2021/03/29 12:57:54;;;;;;;9.85;2.00;;;;;;;;;;5079525;28;20064;-88
2021/03/29 13:00:43;;;;;;;6.85;2.10;;;;;;;;;;5083970;28;20052;-90
2021/03/29 13:03:11;;;;;;;5.70;1.92;;;;;;;;;;5071466;28;20491;-87
2021/03/29 13:05:45;;;;;;;3.60;1.80;;;;;;;;;;5095279;28;20535;-87
2021/03/29 13:08:15;;;;;;;3.33;1.45;;;;;;;;;;5079686;28;20070;-87
2021/03/29 13:13:31;;;;;;;2.42;1.30;;;;;;;;;;5099706;28;20127;-86
2021/03/29 13:16:01;;;;;;;5.30;1.40;;;;;;;;;;5083675;28;20051;-87
2021/03/29 13:18:34;;;;;;;3.88;1.55;;;;;;;;;;5078743;28;20067;-87
2021/03/29 13:21:00;;;;;;;3.00;1.40;;;;;;;;;;5057862;28;20054;-87
2021/03/29 13:23:27;;;;;;;4.32;1.60;;;;;;;;;;5045467;28;20045;-90
2021/03/29 13:26:04;;;;;;;;;;;;;;;;;;;;;
2021/03/29 13:28:41;;;;;;;3.50;1.40;;;;;;;;;;5071587;28;20040;-87
2021/03/29 13:31:18;;;;;;;3.85;1.50;;;;;;;;;;5094744;28;20040;-88
2021/03/29 13:33:45;;;;;;;3.55;1.70;;;;;;;;;;5086241;28;20047;-87
2021/03/29 13:36:12;;;;;;;6.65;1.50;;;;;;;;;;5071262;28;20044;-87
2021/03/29 13:38:38;;;;;;;3.53;1.27;;;;;;;;;;5091860;28;20040;-87
2021/03/29 13:41:06;;;;;;;3.95;1.42;;;;;;;;;;5097284;28;20074;-88
2021/03/29 13:43:38;;;;;;;3.85;1.38;;;;;;;;;;5093925;28;20048;-88
2021/03/29 13:46:04;;;;;;;3.90;1.42;;;;;;;;;;5094896;28;20076;-88
2021/03/29 13:48:32;;;;;;;2.90;1.35;;;;;;;;;;5091906;28;20085;-87
2021/03/29 13:51:01;;;;;;;8.23;2.05;;;;;;;;;;5074763;28;20048;-87
2021/03/29 13:53:33;;;;;;;4.32;1.73;;;;;;;;;;5097046;28;20041;-89
2021/03/29 13:56:03;;;;;;;5.97;1.60;;;;;;;;;;5092366;28;20040;-88
2021/03/29 13:58:30;;;;;;;3.28;1.40;;;;;;;;;;5080473;28;20637;-87
2021/03/29 14:00:57;;;;;;;3.88;1.70;;;;;;;;;;5070594;28;20056;-87
2021/03/29 14:03:28;;;;;;;4.90;1.35;;;;;;;;;;5073886;28;20340;-87
2021/03/29 14:06:04;;;;;;;;;;;;;;;;;;;;;
2021/03/29 14:08:34;;;;;;;3.90;1.25;;;;;;;;;;5092116;28;20056;-87
2021/03/29 14:11:00;;;;;;;3.47;1.20;;;;;;;;;;5071591;28;20101;-88
2021/03/29 14:13:26;;;;;;;4.47;1.35;;;;;;;;;;5071944;28;20056;-88
2021/03/29 14:15:53;;;;;;;6.00;1.25;;;;;;;;;;5072668;28;20104;-89
2021/03/29 14:18:23;;;;;;;4.95;1.67;;;;;;;;;;5069215;28;20048;-89
2021/03/29 14:20:51;;;;;;;2.03;1.13;;;;;;;;;;5070697;28;20051;-87
2021/03/29 14:23:17;;;;;;;7.32;1.42;;;;;;;;;;5067078;28;20141;-86
2021/03/29 14:25:44;;;;;;;4.03;1.85;;;;;;;;;;5094900;28;20384;-87
2021/03/29 14:28:13;;;;;;;2.88;1.60;;;;;;;;;;5040699;28;20044;-89
2021/03/29 14:30:41;;;;;;;3.42;1.60;;;;;;;;;;5075749;28;20082;-87
2021/03/29 14:33:09;;;;;;;2.70;1.50;;;;;;;;;;5095317;28;20048;-87
2021/03/29 14:35:41;;;;;;;3.53;1.27;;;;;;;;;;5073280;28;20059;-89
2021/03/29 14:38:23;;;;;;;2.63;1.50;;;;;;;;;;5084541;28;20072;-87
2021/03/29 14:44:02;;;;;;;2.78;1.27;;;;;;;;;;5071385;28;20128;-87
2021/03/29 14:46:47;;;;;;;;;;;;;;;;;;;;;
2021/03/29 14:49:17;;;;;;;2.70;1.20;;;;;;;;;;5088662;28;20154;-89
2021/03/29 14:51:43;;;;;;;3.78;1.67;;;;;;;;;;5093667;28;20302;-88
2021/03/29 14:54:09;;;;;;;3.03;1.60;;;;;;;;;;5091184;28;20071;-88
2021/03/29 14:56:35;;;;;;;2.60;1.30;;;;;;;;;;5069954;28;20120;-88
2021/03/29 14:59:04;;;;;;;2.88;1.20;;;;;;;;;;5089979;28;20044;-88
2021/03/29 15:01:32;;;;;;;4.15;1.50;;;;;;;;;;5068488;28;20055;-87
2021/03/29 15:03:58;;;;;;;4.00;1.60;;;;;;;;;;5086522;28;20044;-87
2021/03/29 15:07:08;;;;;;;2.97;2.00;;;;;;;;;;5092141;28;20110;-88
2021/03/29 15:09:59;;;;;;;4.40;1.80;;;;;;;;;;5087779;28;20048;-87
2021/03/29 15:12:29;;;;;;;3.25;1.80;;;;;;;;;;5087429;28;20567;-88
2021/03/29 15:14:57;;;;;;;4.28;1.45;;;;;;;;;;5090912;28;20197;-86
2021/03/29 15:17:27;;;;;;;4.47;1.60;;;;;;;;;;5085257;28;20480;-88
2021/03/29 15:19:53;;;;;;;2.85;1.50;;;;;;;;;;5087041;28;20063;-88
2021/03/29 15:22:20;;;;;;;4.57;1.70;;;;;;;;;;5099554;28;20055;-88
2021/03/29 15:24:49;;;;;;;3.20;1.60;;;;;;;;;;5096725;28;20143;-88
2021/03/29 15:27:18;;;;;;;3.92;1.40;;;;;;;;;;5072036;28;20043;-89
2021/03/29 15:29:47;;;;;;;33.65;3.72;;;;;;;;;;5091460;28;20104;-88
2021/03/29 15:32:13;;;;;;;3.47;1.60;;;;;;;;;;5057152;28;20045;-86
2021/03/29 15:34:41;;;;;;;4.82;1.88;;;;;;;;;;5086392;28;20080;-86
2021/03/29 15:37:07;;;;;;;3.97;1.88;;;;;;;;;;5068972;28;20051;-86
2021/03/29 15:39:35;;;;;;;4.10;1.50;;;;;;;;;;5087732;28;20052;-86
2021/03/29 15:42:03;;;;;;;2.45;1.58;;;;;;;;;;5059935;28;20052;-86
2021/03/29 15:44:29;;;;;;;5.07;1.30;;;;;;;;;;5071247;28;20048;-86
2021/03/29 15:46:55;;;;;;;2.30;1.73;;;;;;;;;;5086479;28;20155;-86
2021/03/29 15:49:21;;;;;;;3.42;1.50;;;;;;;;;;5089498;28;20044;-86
2021/03/29 15:51:48;;;;;;;3.88;1.80;;;;;;;;;;5095006;28;20072;-85
2021/03/29 15:54:14;;;;;;;3.55;1.42;;;;;;;;;;5071065;28;20503;-85
2021/03/29 15:56:48;;;;;;;4.47;1.77;;;;;;;;;;5092090;28;20079;-85
2021/03/29 15:59:16;;;;;;;4.53;1.60;;;;;;;;;;5093717;28;20055;-87
2021/03/29 16:01:48;;;;;;;3.45;1.25;;;;;;;;;;5091490;28;21277;-86
2021/03/29 16:04:15;;;;;;;3.78;1.73;;;;;;;;;;5074031;28;20083;-89
2021/03/29 16:06:41;;;;;;;3.25;1.65;;;;;;;;;;5068521;28;20056;-86
2021/03/29 16:09:08;;;;;;;3.50;1.65;;;;;;;;;;5073577;28;20066;-89